sensor_id;sensor_type;location;lat;lon;timestamp;P1;durP1;ratioP1;P2;durP2;ratioP2
20894;SDS011;10607;42.066;24.742;2023-08-07T00:00:23;0.60;;;0.20;;
20894;SDS011;10607;42.066;24.742;2023-08-07T00:02:48;1.88;;;0.35;;
20894;SDS011;10607;42.066;24.742;2023-08-07T00:05:14;0.70;;;0.40;;
20894;SDS011;10607;42.066;24.742;2023-08-07T00:07:41;2.38;;;0.43;;
20894;SDS011;10607;42.066;24.742;2023-08-07T00:10:07;0.90;;;0.43;;
20894;SDS011;10607;42.066;24.742;2023-08-07T00:12:32;3.67;;;0.35;;
20894;SDS011;10607;42.066;24.742;2023-08-07T00:14:57;3.13;;;0.43;;
20894;SDS011;10607;42.066;24.742;2023-08-07T00:17:23;2.00;;;0.50;;
20894;SDS011;10607;42.066;24.742;2023-08-07T00:19:48;2.25;;;0.35;;
20894;SDS011;10607;42.066;24.742;2023-08-07T00:22:13;0.65;;;0.45;;
20894;SDS011;10607;42.066;24.742;2023-08-07T00:24:39;2.15;;;0.50;;
20894;SDS011;10607;42.066;24.742;2023-08-07T00:27:04;0.93;;;0.38;;
20894;SDS011;10607;42.066;24.742;2023-08-07T00:29:29;0.50;;;0.30;;
20894;SDS011;10607;42.066;24.742;2023-08-07T00:31:55;1.40;;;0.75;;
20894;SDS011;10607;42.066;24.742;2023-08-07T00:34:20;0.60;;;0.60;;
20894;SDS011;10607;42.066;24.742;2023-08-07T00:36:45;1.02;;;0.35;;
20894;SDS011;10607;42.066;24.742;2023-08-07T00:39:10;1.00;;;0.32;;
20894;SDS011;10607;42.066;24.742;2023-08-07T00:41:36;0.82;;;0.35;;
20894;SDS011;10607;42.066;24.742;2023-08-07T00:44:01;0.40;;;0.40;;
20894;SDS011;10607;42.066;24.742;2023-08-07T00:46:26;0.30;;;0.30;;
20894;SDS011;10607;42.066;24.742;2023-08-07T00:48:52;0.80;;;0.30;;
20894;SDS011;10607;42.066;24.742;2023-08-07T00:51:19;1.88;;;0.30;;
20894;SDS011;10607;42.066;24.742;2023-08-07T00:53:44;2.85;;;0.63;;
20894;SDS011;10607;42.066;24.742;2023-08-07T00:56:10;4.10;;;0.50;;
20894;SDS011;10607;42.066;24.742;2023-08-07T00:58:35;1.58;;;0.20;;
20894;SDS011;10607;42.066;24.742;2023-08-07T01:01:01;1.00;;;0.40;;
20894;SDS011;10607;42.066;24.742;2023-08-07T01:03:26;1.17;;;0.40;;
20894;SDS011;10607;42.066;24.742;2023-08-07T01:05:52;4.70;;;0.40;;
20894;SDS011;10607;42.066;24.742;2023-08-07T01:08:17;0.93;;;0.40;;
20894;SDS011;10607;42.066;24.742;2023-08-07T01:13:23;1.30;;;0.40;;
20894;SDS011;10607;42.066;24.742;2023-08-07T01:15:52;4.18;;;0.50;;
20894;SDS011;10607;42.066;24.742;2023-08-07T01:18:18;3.70;;;0.50;;
20894;SDS011;10607;42.066;24.742;2023-08-07T01:20:44;0.95;;;0.40;;
20894;SDS011;10607;42.066;24.742;2023-08-07T01:23:09;2.22;;;0.30;;
20894;SDS011;10607;42.066;24.742;2023-08-07T01:25:34;1.50;;;0.50;;
20894;SDS011;10607;42.066;24.742;2023-08-07T01:28:05;1.45;;;0.50;;
20894;SDS011;10607;42.066;24.742;2023-08-07T01:30:33;0.50;;;0.40;;
20894;SDS011;10607;42.066;24.742;2023-08-07T01:35:41;3.08;;;0.80;;
20894;SDS011;10607;42.066;24.742;2023-08-07T01:38:08;1.35;;;0.47;;
20894;SDS011;10607;42.066;24.742;2023-08-07T01:40:33;0.82;;;0.30;;
20894;SDS011;10607;42.066;24.742;2023-08-07T01:42:59;1.33;;;0.50;;
20894;SDS011;10607;42.066;24.742;2023-08-07T01:45:26;1.75;;;0.60;;
20894;SDS011;10607;42.066;24.742;2023-08-07T01:47:52;2.22;;;0.40;;
20894;SDS011;10607;42.066;24.742;2023-08-07T01:50:18;0.52;;;0.30;;
20894;SDS011;10607;42.066;24.742;2023-08-07T01:52:43;0.70;;;0.30;;
20894;SDS011;10607;42.066;24.742;2023-08-07T01:55:09;0.45;;;0.40;;
20894;SDS011;10607;42.066;24.742;2023-08-07T01:57:34;1.52;;;0.60;;
20894;SDS011;10607;42.066;24.742;2023-08-07T01:59:59;0.77;;;0.32;;
20894;SDS011;10607;42.066;24.742;2023-08-07T02:02:24;2.00;;;0.50;;
20894;SDS011;10607;42.066;24.742;2023-08-07T02:04:50;0.70;;;0.40;;
20894;SDS011;10607;42.066;24.742;2023-08-07T02:07:15;0.50;;;0.50;;
20894;SDS011;10607;42.066;24.742;2023-08-07T02:09:40;0.82;;;0.52;;
20894;SDS011;10607;42.066;24.742;2023-08-07T02:12:06;1.58;;;0.68;;
20894;SDS011;10607;42.066;24.742;2023-08-07T02:14:31;3.42;;;0.80;;
20894;SDS011;10607;42.066;24.742;2023-08-07T02:16:56;2.67;;;0.80;;
20894;SDS011;10607;42.066;24.742;2023-08-07T02:19:22;0.75;;;0.60;;
20894;SDS011;10607;42.066;24.742;2023-08-07T02:21:47;3.53;;;0.70;;
20894;SDS011;10607;42.066;24.742;2023-08-07T02:24:12;1.85;;;0.80;;
20894;SDS011;10607;42.066;24.742;2023-08-07T02:26:38;0.93;;;0.80;;
20894;SDS011;10607;42.066;24.742;2023-08-07T02:29:04;2.50;;;0.90;;
20894;SDS011;10607;42.066;24.742;2023-08-07T02:31:31;0.80;;;0.80;;
20894;SDS011;10607;42.066;24.742;2023-08-07T02:33:56;1.17;;;1.08;;
20894;SDS011;10607;42.066;24.742;2023-08-07T02:36:22;0.88;;;0.80;;
20894;SDS011;10607;42.066;24.742;2023-08-07T02:38:47;1.70;;;1.27;;
20894;SDS011;10607;42.066;24.742;2023-08-07T02:41:12;1.15;;;1.00;;
20894;SDS011;10607;42.066;24.742;2023-08-07T02:43:38;1.15;;;1.05;;
20894;SDS011;10607;42.066;24.742;2023-08-07T02:46:03;2.45;;;1.20;;
20894;SDS011;10607;42.066;24.742;2023-08-07T02:48:28;1.25;;;1.13;;
20894;SDS011;10607;42.066;24.742;2023-08-07T02:50:53;2.28;;;1.23;;
20894;SDS011;10607;42.066;24.742;2023-08-07T02:53:19;1.77;;;1.05;;
20894;SDS011;10607;42.066;24.742;2023-08-07T02:55:44;1.10;;;0.98;;
20894;SDS011;10607;42.066;24.742;2023-08-07T02:58:09;1.88;;;1.35;;
20894;SDS011;10607;42.066;24.742;2023-08-07T03:00:35;2.97;;;1.20;;
20894;SDS011;10607;42.066;24.742;2023-08-07T03:03:00;1.67;;;1.00;;
20894;SDS011;10607;42.066;24.742;2023-08-07T03:05:26;1.02;;;0.80;;
20894;SDS011;10607;42.066;24.742;2023-08-07T03:07:51;2.65;;;0.80;;
20894;SDS011;10607;42.066;24.742;2023-08-07T03:10:16;2.00;;;0.90;;
20894;SDS011;10607;42.066;24.742;2023-08-07T03:12:41;1.85;;;1.02;;
20894;SDS011;10607;42.066;24.742;2023-08-07T03:15:07;1.27;;;1.00;;
20894;SDS011;10607;42.066;24.742;2023-08-07T03:17:32;0.60;;;0.60;;
20894;SDS011;10607;42.066;24.742;2023-08-07T03:19:57;0.68;;;0.63;;
20894;SDS011;10607;42.066;24.742;2023-08-07T03:22:23;3.88;;;0.80;;
20894;SDS011;10607;42.066;24.742;2023-08-07T03:24:48;1.23;;;0.70;;
20894;SDS011;10607;42.066;24.742;2023-08-07T03:27:14;1.33;;;0.73;;
20894;SDS011;10607;42.066;24.742;2023-08-07T03:29:39;6.43;;;0.60;;
20894;SDS011;10607;42.066;24.742;2023-08-07T03:32:04;0.93;;;0.50;;
20894;SDS011;10607;42.066;24.742;2023-08-07T03:34:30;1.15;;;0.73;;
20894;SDS011;10607;42.066;24.742;2023-08-07T03:36:55;1.00;;;0.65;;
20894;SDS011;10607;42.066;24.742;2023-08-07T03:39:20;1.88;;;0.60;;
20894;SDS011;10607;42.066;24.742;2023-08-07T03:41:46;0.60;;;0.60;;
20894;SDS011;10607;42.066;24.742;2023-08-07T03:44:11;1.08;;;0.68;;
20894;SDS011;10607;42.066;24.742;2023-08-07T03:46:36;1.20;;;0.77;;
20894;SDS011;10607;42.066;24.742;2023-08-07T03:49:01;1.98;;;0.75;;
20894;SDS011;10607;42.066;24.742;2023-08-07T03:51:27;4.70;;;0.55;;
20894;SDS011;10607;42.066;24.742;2023-08-07T03:53:52;2.60;;;1.00;;
20894;SDS011;10607;42.066;24.742;2023-08-07T03:56:18;3.08;;;0.90;;
20894;SDS011;10607;42.066;24.742;2023-08-07T03:58:43;0.60;;;0.60;;
20894;SDS011;10607;42.066;24.742;2023-08-07T04:01:09;0.90;;;0.90;;
20894;SDS011;10607;42.066;24.742;2023-08-07T04:03:36;2.13;;;1.00;;
20894;SDS011;10607;42.066;24.742;2023-08-07T04:06:02;4.80;;;1.65;;
20894;SDS011;10607;42.066;24.742;2023-08-07T04:08:27;0.82;;;0.75;;
20894;SDS011;10607;42.066;24.742;2023-08-07T04:11:05;1.02;;;0.90;;
20894;SDS011;10607;42.066;24.742;2023-08-07T04:13:30;1.17;;;0.80;;
20894;SDS011;10607;42.066;24.742;2023-08-07T04:15:56;1.00;;;0.90;;
20894;SDS011;10607;42.066;24.742;2023-08-07T04:18:21;1.23;;;0.75;;
20894;SDS011;10607;42.066;24.742;2023-08-07T04:20:50;2.22;;;1.00;;
20894;SDS011;10607;42.066;24.742;2023-08-07T04:23:17;1.50;;;0.93;;
20894;SDS011;10607;42.066;24.742;2023-08-07T04:25:42;1.15;;;0.90;;
20894;SDS011;10607;42.066;24.742;2023-08-07T04:28:07;3.30;;;1.00;;
20894;SDS011;10607;42.066;24.742;2023-08-07T04:30:33;0.98;;;0.77;;
20894;SDS011;10607;42.066;24.742;2023-08-07T04:32:59;1.80;;;0.80;;
20894;SDS011;10607;42.066;24.742;2023-08-07T04:35:24;3.58;;;0.73;;
20894;SDS011;10607;42.066;24.742;2023-08-07T04:37:49;0.90;;;0.68;;
20894;SDS011;10607;42.066;24.742;2023-08-07T04:40:14;1.00;;;0.88;;
20894;SDS011;10607;42.066;24.742;2023-08-07T04:42:40;4.28;;;1.08;;
20894;SDS011;10607;42.066;24.742;2023-08-07T04:45:05;0.82;;;0.80;;
20894;SDS011;10607;42.066;24.742;2023-08-07T04:47:30;3.10;;;0.90;;
20894;SDS011;10607;42.066;24.742;2023-08-07T04:49:56;1.35;;;0.88;;
20894;SDS011;10607;42.066;24.742;2023-08-07T04:52:21;0.80;;;0.75;;
20894;SDS011;10607;42.066;24.742;2023-08-07T04:54:46;1.42;;;0.77;;
20894;SDS011;10607;42.066;24.742;2023-08-07T04:57:12;0.88;;;0.75;;
20894;SDS011;10607;42.066;24.742;2023-08-07T04:59:37;7.88;;;1.70;;
20894;SDS011;10607;42.066;24.742;2023-08-07T05:02:02;2.20;;;1.00;;
20894;SDS011;10607;42.066;24.742;2023-08-07T05:04:28;1.10;;;1.00;;
20894;SDS011;10607;42.066;24.742;2023-08-07T05:06:53;3.55;;;1.00;;
20894;SDS011;10607;42.066;24.742;2023-08-07T05:09:18;5.65;;;1.00;;
20894;SDS011;10607;42.066;24.742;2023-08-07T05:11:43;2.97;;;0.98;;
20894;SDS011;10607;42.066;24.742;2023-08-07T05:14:09;6.10;;;1.15;;
20894;SDS011;10607;42.066;24.742;2023-08-07T05:16:35;19.52;;;2.40;;
20894;SDS011;10607;42.066;24.742;2023-08-07T05:19:00;11.55;;;1.92;;
20894;SDS011;10607;42.066;24.742;2023-08-07T05:21:26;3.53;;;1.10;;
20894;SDS011;10607;42.066;24.742;2023-08-07T05:23:51;6.22;;;1.33;;
20894;SDS011;10607;42.066;24.742;2023-08-07T05:26:20;4.47;;;1.00;;
20894;SDS011;10607;42.066;24.742;2023-08-07T05:28:45;4.18;;;1.15;;
20894;SDS011;10607;42.066;24.742;2023-08-07T05:31:10;2.70;;;0.82;;
20894;SDS011;10607;42.066;24.742;2023-08-07T05:33:36;2.35;;;1.25;;
20894;SDS011;10607;42.066;24.742;2023-08-07T05:36:01;2.88;;;0.90;;
20894;SDS011;10607;42.066;24.742;2023-08-07T05:38:26;3.45;;;0.88;;
20894;SDS011;10607;42.066;24.742;2023-08-07T05:40:52;6.65;;;1.05;;
20894;SDS011;10607;42.066;24.742;2023-08-07T05:43:17;1.63;;;1.00;;
20894;SDS011;10607;42.066;24.742;2023-08-07T05:45:42;4.15;;;1.00;;
20894;SDS011;10607;42.066;24.742;2023-08-07T05:48:09;5.82;;;1.35;;
20894;SDS011;10607;42.066;24.742;2023-08-07T05:50:35;3.28;;;1.10;;
20894;SDS011;10607;42.066;24.742;2023-08-07T05:53:00;1.17;;;1.08;;
20894;SDS011;10607;42.066;24.742;2023-08-07T05:55:25;4.07;;;1.30;;
20894;SDS011;10607;42.066;24.742;2023-08-07T05:57:51;1.40;;;0.95;;
20894;SDS011;10607;42.066;24.742;2023-08-07T06:00:16;2.42;;;1.30;;
20894;SDS011;10607;42.066;24.742;2023-08-07T06:02:44;1.55;;;1.25;;
20894;SDS011;10607;42.066;24.742;2023-08-07T06:05:09;2.00;;;1.40;;
20894;SDS011;10607;42.066;24.742;2023-08-07T06:07:37;2.20;;;1.40;;
20894;SDS011;10607;42.066;24.742;2023-08-07T06:10:02;2.03;;;1.00;;
20894;SDS011;10607;42.066;24.742;2023-08-07T06:12:28;5.35;;;1.25;;
20894;SDS011;10607;42.066;24.742;2023-08-07T06:14:53;1.50;;;1.00;;
20894;SDS011;10607;42.066;24.742;2023-08-07T06:17:18;4.28;;;1.30;;
20894;SDS011;10607;42.066;24.742;2023-08-07T06:19:44;7.60;;;1.05;;
20894;SDS011;10607;42.066;24.742;2023-08-07T06:22:09;4.20;;;1.15;;
20894;SDS011;10607;42.066;24.742;2023-08-07T06:24:34;3.40;;;1.00;;
20894;SDS011;10607;42.066;24.742;2023-08-07T06:26:59;2.47;;;1.10;;
20894;SDS011;10607;42.066;24.742;2023-08-07T06:29:25;3.60;;;1.00;;
20894;SDS011;10607;42.066;24.742;2023-08-07T06:31:50;7.97;;;0.90;;
20894;SDS011;10607;42.066;24.742;2023-08-07T06:34:15;2.00;;;1.00;;
20894;SDS011;10607;42.066;24.742;2023-08-07T06:36:41;3.83;;;0.82;;
20894;SDS011;10607;42.066;24.742;2023-08-07T06:39:06;1.00;;;0.70;;
20894;SDS011;10607;42.066;24.742;2023-08-07T06:41:31;1.63;;;1.02;;
20894;SDS011;10607;42.066;24.742;2023-08-07T06:43:57;4.25;;;0.85;;
20894;SDS011;10607;42.066;24.742;2023-08-07T06:46:22;1.58;;;0.80;;
20894;SDS011;10607;42.066;24.742;2023-08-07T06:48:49;1.65;;;0.73;;
20894;SDS011;10607;42.066;24.742;2023-08-07T06:51:15;1.38;;;0.80;;
20894;SDS011;10607;42.066;24.742;2023-08-07T06:53:41;3.60;;;0.80;;
20894;SDS011;10607;42.066;24.742;2023-08-07T06:56:07;1.50;;;0.70;;
20894;SDS011;10607;42.066;24.742;2023-08-07T06:58:32;1.42;;;0.77;;
20894;SDS011;10607;42.066;24.742;2023-08-07T07:00:57;2.50;;;1.05;;
20894;SDS011;10607;42.066;24.742;2023-08-07T07:03:23;4.30;;;0.93;;
20894;SDS011;10607;42.066;24.742;2023-08-07T07:05:49;2.25;;;1.05;;
20894;SDS011;10607;42.066;24.742;2023-08-07T07:08:14;2.15;;;0.80;;
20894;SDS011;10607;42.066;24.742;2023-08-07T07:10:39;3.03;;;2.28;;
20894;SDS011;10607;42.066;24.742;2023-08-07T07:13:04;3.05;;;1.58;;
20894;SDS011;10607;42.066;24.742;2023-08-07T07:15:30;7.75;;;2.00;;
20894;SDS011;10607;42.066;24.742;2023-08-07T07:17:55;5.60;;;2.35;;
20894;SDS011;10607;42.066;24.742;2023-08-07T07:20:21;3.30;;;1.75;;
20894;SDS011;10607;42.066;24.742;2023-08-07T07:22:46;1.55;;;1.27;;
20894;SDS011;10607;42.066;24.742;2023-08-07T07:25:11;1.60;;;1.20;;
20894;SDS011;10607;42.066;24.742;2023-08-07T07:27:37;5.40;;;1.60;;
20894;SDS011;10607;42.066;24.742;2023-08-07T07:30:02;7.15;;;1.20;;
20894;SDS011;10607;42.066;24.742;2023-08-07T07:32:27;7.95;;;2.67;;
20894;SDS011;10607;42.066;24.742;2023-08-07T07:34:52;6.18;;;1.73;;
20894;SDS011;10607;42.066;24.742;2023-08-07T07:37:18;4.60;;;1.10;;
20894;SDS011;10607;42.066;24.742;2023-08-07T07:39:43;1.40;;;0.70;;
20894;SDS011;10607;42.066;24.742;2023-08-07T07:42:08;3.42;;;1.50;;
20894;SDS011;10607;42.066;24.742;2023-08-07T07:44:34;1.77;;;1.20;;
20894;SDS011;10607;42.066;24.742;2023-08-07T07:47:01;2.58;;;1.08;;
20894;SDS011;10607;42.066;24.742;2023-08-07T07:49:26;1.23;;;0.85;;
20894;SDS011;10607;42.066;24.742;2023-08-07T07:51:52;3.15;;;1.15;;
20894;SDS011;10607;42.066;24.742;2023-08-07T07:54:17;2.33;;;1.42;;
20894;SDS011;10607;42.066;24.742;2023-08-07T07:56:42;7.97;;;1.50;;
20894;SDS011;10607;42.066;24.742;2023-08-07T07:59:08;5.07;;;1.92;;
20894;SDS011;10607;42.066;24.742;2023-08-07T08:01:33;4.47;;;1.42;;
20894;SDS011;10607;42.066;24.742;2023-08-07T08:03:59;4.47;;;1.08;;
20894;SDS011;10607;42.066;24.742;2023-08-07T08:06:24;11.95;;;1.10;;
20894;SDS011;10607;42.066;24.742;2023-08-07T08:08:49;3.75;;;1.10;;
20894;SDS011;10607;42.066;24.742;2023-08-07T08:11:14;4.10;;;0.90;;
20894;SDS011;10607;42.066;24.742;2023-08-07T08:13:40;2.90;;;1.52;;
20894;SDS011;10607;42.066;24.742;2023-08-07T08:16:06;1.98;;;1.20;;
20894;SDS011;10607;42.066;24.742;2023-08-07T08:18:31;14.80;;;1.35;;
20894;SDS011;10607;42.066;24.742;2023-08-07T08:20:57;2.50;;;1.10;;
20894;SDS011;10607;42.066;24.742;2023-08-07T08:23:22;0.77;;;0.65;;
20894;SDS011;10607;42.066;24.742;2023-08-07T08:25:47;1.75;;;0.85;;
20894;SDS011;10607;42.066;24.742;2023-08-07T08:28:13;5.47;;;1.23;;
20894;SDS011;10607;42.066;24.742;2023-08-07T08:30:38;2.80;;;1.20;;
20894;SDS011;10607;42.066;24.742;2023-08-07T08:33:04;3.63;;;1.20;;
20894;SDS011;10607;42.066;24.742;2023-08-07T08:35:30;2.10;;;1.10;;
20894;SDS011;10607;42.066;24.742;2023-08-07T08:37:56;1.33;;;0.80;;
20894;SDS011;10607;42.066;24.742;2023-08-07T08:40:21;2.28;;;1.13;;
20894;SDS011;10607;42.066;24.742;2023-08-07T08:42:46;1.70;;;1.00;;
20894;SDS011;10607;42.066;24.742;2023-08-07T08:45:13;1.10;;;0.90;;
20894;SDS011;10607;42.066;24.742;2023-08-07T08:47:38;2.90;;;1.00;;
20894;SDS011;10607;42.066;24.742;2023-08-07T08:50:08;2.58;;;1.05;;
20894;SDS011;10607;42.066;24.742;2023-08-07T08:52:38;1.13;;;0.90;;
20894;SDS011;10607;42.066;24.742;2023-08-07T08:55:03;0.95;;;0.73;;
20894;SDS011;10607;42.066;24.742;2023-08-07T08:57:29;1.00;;;0.60;;
20894;SDS011;10607;42.066;24.742;2023-08-07T08:59:55;1.33;;;0.70;;
20894;SDS011;10607;42.066;24.742;2023-08-07T09:02:20;1.88;;;0.65;;
20894;SDS011;10607;42.066;24.742;2023-08-07T09:04:46;0.93;;;0.65;;
20894;SDS011;10607;42.066;24.742;2023-08-07T09:07:12;2.55;;;0.90;;
20894;SDS011;10607;42.066;24.742;2023-08-07T09:09:38;3.08;;;0.75;;
20894;SDS011;10607;42.066;24.742;2023-08-07T09:12:04;2.85;;;0.93;;
20894;SDS011;10607;42.066;24.742;2023-08-07T09:14:30;1.33;;;0.75;;
20894;SDS011;10607;42.066;24.742;2023-08-07T09:16:57;0.77;;;0.77;;
20894;SDS011;10607;42.066;24.742;2023-08-07T09:19:23;7.78;;;0.80;;
20894;SDS011;10607;42.066;24.742;2023-08-07T09:21:49;3.90;;;0.80;;
20894;SDS011;10607;42.066;24.742;2023-08-07T09:24:14;1.55;;;0.70;;
20894;SDS011;10607;42.066;24.742;2023-08-07T09:26:41;1.25;;;0.80;;
20894;SDS011;10607;42.066;24.742;2023-08-07T09:29:10;0.88;;;0.50;;
20894;SDS011;10607;42.066;24.742;2023-08-07T09:31:38;1.27;;;0.50;;
20894;SDS011;10607;42.066;24.742;2023-08-07T09:34:04;0.80;;;0.55;;
20894;SDS011;10607;42.066;24.742;2023-08-07T09:36:30;2.30;;;0.60;;
20894;SDS011;10607;42.066;24.742;2023-08-07T09:38:56;1.83;;;0.70;;
20894;SDS011;10607;42.066;24.742;2023-08-07T09:41:21;1.35;;;0.52;;
20894;SDS011;10607;42.066;24.742;2023-08-07T09:43:47;1.55;;;0.50;;
20894;SDS011;10607;42.066;24.742;2023-08-07T09:46:12;4.88;;;0.60;;
20894;SDS011;10607;42.066;24.742;2023-08-07T09:48:43;12.25;;;1.23;;
20894;SDS011;10607;42.066;24.742;2023-08-07T09:51:09;3.17;;;0.40;;
20894;SDS011;10607;42.066;24.742;2023-08-07T09:53:34;0.82;;;0.47;;
20894;SDS011;10607;42.066;24.742;2023-08-07T09:56:00;0.90;;;0.50;;
20894;SDS011;10607;42.066;24.742;2023-08-07T09:58:25;1.67;;;0.70;;
20894;SDS011;10607;42.066;24.742;2023-08-07T10:00:51;0.75;;;0.60;;
20894;SDS011;10607;42.066;24.742;2023-08-07T10:03:20;0.75;;;0.60;;
20894;SDS011;10607;42.066;24.742;2023-08-07T10:05:46;2.38;;;0.35;;
20894;SDS011;10607;42.066;24.742;2023-08-07T10:08:12;3.90;;;0.30;;
20894;SDS011;10607;42.066;24.742;2023-08-07T10:10:38;1.38;;;0.40;;
20894;SDS011;10607;42.066;24.742;2023-08-07T10:13:03;1.63;;;0.70;;
20894;SDS011;10607;42.066;24.742;2023-08-07T10:15:29;0.90;;;0.52;;
20894;SDS011;10607;42.066;24.742;2023-08-07T10:17:56;1.50;;;0.50;;
20894;SDS011;10607;42.066;24.742;2023-08-07T10:20:21;0.93;;;0.50;;
20894;SDS011;10607;42.066;24.742;2023-08-07T10:22:47;1.92;;;0.60;;
20894;SDS011;10607;42.066;24.742;2023-08-07T10:25:13;0.85;;;0.55;;
20894;SDS011;10607;42.066;24.742;2023-08-07T10:27:38;0.50;;;0.40;;
20894;SDS011;10607;42.066;24.742;2023-08-07T10:30:06;2.40;;;0.50;;
20894;SDS011;10607;42.066;24.742;2023-08-07T10:32:32;0.88;;;0.35;;
20894;SDS011;10607;42.066;24.742;2023-08-07T10:34:58;0.40;;;0.40;;
20894;SDS011;10607;42.066;24.742;2023-08-07T10:40:04;0.68;;;0.57;;
20894;SDS011;10607;42.066;24.742;2023-08-07T10:42:49;11.23;;;0.77;;
20894;SDS011;10607;42.066;24.742;2023-08-07T10:45:17;7.03;;;0.55;;
20894;SDS011;10607;42.066;24.742;2023-08-07T10:47:42;6.53;;;0.52;;
20894;SDS011;10607;42.066;24.742;2023-08-07T10:50:09;2.15;;;0.60;;
20894;SDS011;10607;42.066;24.742;2023-08-07T10:52:34;0.40;;;0.30;;
20894;SDS011;10607;42.066;24.742;2023-08-07T10:55:03;1.17;;;0.50;;
20894;SDS011;10607;42.066;24.742;2023-08-07T10:57:37;0.88;;;0.47;;
20894;SDS011;10607;42.066;24.742;2023-08-07T11:00:05;1.17;;;0.65;;
20894;SDS011;10607;42.066;24.742;2023-08-07T11:02:31;2.92;;;0.73;;
20894;SDS011;10607;42.066;24.742;2023-08-07T11:04:58;2.60;;;0.43;;
20894;SDS011;10607;42.066;24.742;2023-08-07T11:07:27;5.85;;;0.60;;
20894;SDS011;10607;42.066;24.742;2023-08-07T11:09:55;3.08;;;0.43;;
20894;SDS011;10607;42.066;24.742;2023-08-07T11:12:24;1.55;;;0.63;;
20894;SDS011;10607;42.066;24.742;2023-08-07T11:14:49;8.00;;;0.60;;
20894;SDS011;10607;42.066;24.742;2023-08-07T11:17:14;2.42;;;0.40;;
20894;SDS011;10607;42.066;24.742;2023-08-07T11:19:41;5.00;;;0.60;;
20894;SDS011;10607;42.066;24.742;2023-08-07T11:22:06;0.50;;;0.50;;
20894;SDS011;10607;42.066;24.742;2023-08-07T11:24:32;0.73;;;0.40;;
20894;SDS011;10607;42.066;24.742;2023-08-07T11:26:57;2.35;;;0.45;;
20894;SDS011;10607;42.066;24.742;2023-08-07T11:29:23;1.67;;;0.60;;
20894;SDS011;10607;42.066;24.742;2023-08-07T11:31:53;1.65;;;0.38;;
20894;SDS011;10607;42.066;24.742;2023-08-07T11:34:18;2.85;;;0.63;;
20894;SDS011;10607;42.066;24.742;2023-08-07T11:36:44;0.50;;;0.50;;
20894;SDS011;10607;42.066;24.742;2023-08-07T11:39:10;2.20;;;0.65;;
20894;SDS011;10607;42.066;24.742;2023-08-07T11:41:35;4.57;;;0.50;;
20894;SDS011;10607;42.066;24.742;2023-08-07T11:44:01;2.50;;;0.55;;
20894;SDS011;10607;42.066;24.742;2023-08-07T11:46:26;1.15;;;0.60;;
20894;SDS011;10607;42.066;24.742;2023-08-07T11:48:51;2.28;;;0.88;;
20894;SDS011;10607;42.066;24.742;2023-08-07T11:51:17;3.33;;;0.60;;
20894;SDS011;10607;42.066;24.742;2023-08-07T11:53:42;4.18;;;0.60;;
20894;SDS011;10607;42.066;24.742;2023-08-07T11:56:11;1.98;;;0.70;;
20894;SDS011;10607;42.066;24.742;2023-08-07T11:58:41;1.35;;;0.80;;
20894;SDS011;10607;42.066;24.742;2023-08-07T12:01:08;3.80;;;0.63;;
20894;SDS011;10607;42.066;24.742;2023-08-07T12:03:35;1.05;;;0.52;;
20894;SDS011;10607;42.066;24.742;2023-08-07T12:06:05;3.60;;;1.05;;
20894;SDS011;10607;42.066;24.742;2023-08-07T12:08:41;2.13;;;0.60;;
20894;SDS011;10607;42.066;24.742;2023-08-07T12:11:07;2.35;;;0.70;;
20894;SDS011;10607;42.066;24.742;2023-08-07T12:13:32;5.93;;;0.80;;
20894;SDS011;10607;42.066;24.742;2023-08-07T12:16:00;2.50;;;0.70;;
20894;SDS011;10607;42.066;24.742;2023-08-07T12:18:26;1.13;;;0.68;;
20894;SDS011;10607;42.066;24.742;2023-08-07T12:20:52;1.83;;;0.73;;
20894;SDS011;10607;42.066;24.742;2023-08-07T12:23:18;1.20;;;0.80;;
20894;SDS011;10607;42.066;24.742;2023-08-07T12:25:45;3.35;;;0.60;;
20894;SDS011;10607;42.066;24.742;2023-08-07T12:28:10;0.55;;;0.40;;
20894;SDS011;10607;42.066;24.742;2023-08-07T12:30:36;1.60;;;0.63;;
20894;SDS011;10607;42.066;24.742;2023-08-07T12:33:01;1.27;;;0.70;;
20894;SDS011;10607;42.066;24.742;2023-08-07T12:35:29;4.82;;;0.90;;
20894;SDS011;10607;42.066;24.742;2023-08-07T12:37:54;3.67;;;0.80;;
20894;SDS011;10607;42.066;24.742;2023-08-07T12:40:20;1.33;;;0.93;;
20894;SDS011;10607;42.066;24.742;2023-08-07T12:42:46;1.33;;;0.90;;
20894;SDS011;10607;42.066;24.742;2023-08-07T12:45:11;2.88;;;0.75;;
20894;SDS011;10607;42.066;24.742;2023-08-07T12:47:36;6.82;;;1.02;;
20894;SDS011;10607;42.066;24.742;2023-08-07T12:50:02;5.25;;;1.02;;
20894;SDS011;10607;42.066;24.742;2023-08-07T12:52:28;3.60;;;1.08;;
20894;SDS011;10607;42.066;24.742;2023-08-07T12:54:54;3.90;;;0.82;;
20894;SDS011;10607;42.066;24.742;2023-08-07T12:57:20;6.05;;;1.17;;
20894;SDS011;10607;42.066;24.742;2023-08-07T12:59:45;7.43;;;1.02;;
20894;SDS011;10607;42.066;24.742;2023-08-07T13:02:10;6.57;;;1.40;;
20894;SDS011;10607;42.066;24.742;2023-08-07T13:04:36;1.30;;;0.95;;
20894;SDS011;10607;42.066;24.742;2023-08-07T13:07:01;0.93;;;0.80;;
20894;SDS011;10607;42.066;24.742;2023-08-07T13:09:26;3.58;;;0.93;;
20894;SDS011;10607;42.066;24.742;2023-08-07T13:11:52;6.90;;;1.25;;
20894;SDS011;10607;42.066;24.742;2023-08-07T13:14:17;3.53;;;0.85;;
20894;SDS011;10607;42.066;24.742;2023-08-07T13:16:42;1.90;;;0.80;;
20894;SDS011;10607;42.066;24.742;2023-08-07T13:19:08;3.85;;;0.88;;
20894;SDS011;10607;42.066;24.742;2023-08-07T13:21:33;5.47;;;1.02;;
20894;SDS011;10607;42.066;24.742;2023-08-07T13:23:58;5.93;;;1.17;;
20894;SDS011;10607;42.066;24.742;2023-08-07T13:26:23;1.65;;;1.10;;
20894;SDS011;10607;42.066;24.742;2023-08-07T13:28:49;3.17;;;1.00;;
20894;SDS011;10607;42.066;24.742;2023-08-07T13:31:14;3.38;;;1.05;;
20894;SDS011;10607;42.066;24.742;2023-08-07T13:33:39;3.42;;;1.10;;
20894;SDS011;10607;42.066;24.742;2023-08-07T13:36:05;3.33;;;1.08;;
20894;SDS011;10607;42.066;24.742;2023-08-07T13:38:30;2.70;;;1.10;;
20894;SDS011;10607;42.066;24.742;2023-08-07T13:40:55;4.43;;;1.00;;
20894;SDS011;10607;42.066;24.742;2023-08-07T13:43:20;2.40;;;1.00;;
20894;SDS011;10607;42.066;24.742;2023-08-07T13:45:46;4.00;;;1.02;;
20894;SDS011;10607;42.066;24.742;2023-08-07T13:48:11;3.17;;;0.90;;
20894;SDS011;10607;42.066;24.742;2023-08-07T13:50:36;2.35;;;0.70;;
20894;SDS011;10607;42.066;24.742;2023-08-07T13:53:03;2.78;;;0.98;;
20894;SDS011;10607;42.066;24.742;2023-08-07T13:55:28;1.42;;;0.90;;
20894;SDS011;10607;42.066;24.742;2023-08-07T13:57:54;2.58;;;1.00;;
20894;SDS011;10607;42.066;24.742;2023-08-07T14:00:19;1.20;;;0.90;;
20894;SDS011;10607;42.066;24.742;2023-08-07T14:02:44;4.10;;;1.08;;
20894;SDS011;10607;42.066;24.742;2023-08-07T14:05:10;3.85;;;0.88;;
20894;SDS011;10607;42.066;24.742;2023-08-07T14:07:35;2.25;;;0.80;;
20894;SDS011;10607;42.066;24.742;2023-08-07T14:10:00;3.97;;;1.27;;
20894;SDS011;10607;42.066;24.742;2023-08-07T14:12:26;0.88;;;0.77;;
20894;SDS011;10607;42.066;24.742;2023-08-07T14:14:52;0.93;;;0.80;;
20894;SDS011;10607;42.066;24.742;2023-08-07T14:17:17;2.80;;;1.05;;
20894;SDS011;10607;42.066;24.742;2023-08-07T14:19:43;4.35;;;0.90;;
20894;SDS011;10607;42.066;24.742;2023-08-07T14:22:08;2.70;;;1.13;;
20894;SDS011;10607;42.066;24.742;2023-08-07T14:24:34;6.57;;;1.20;;
20894;SDS011;10607;42.066;24.742;2023-08-07T14:26:59;9.48;;;0.95;;
20894;SDS011;10607;42.066;24.742;2023-08-07T14:29:24;1.77;;;0.93;;
20894;SDS011;10607;42.066;24.742;2023-08-07T14:31:50;2.47;;;0.82;;